createdAt,value
2023-11-15T00:01:24.029Z,99092.38
2023-11-15T00:03:52.083Z,99064.91
2023-11-15T00:06:21.630Z,99062.56
2023-11-15T00:08:51.032Z,99055.91
2023-11-15T00:11:20.596Z,99052.66
2023-11-15T00:13:51.902Z,99056.47
2023-11-15T00:16:19.784Z,99049.53
2023-11-15T00:18:47.584Z,99056.22
2023-11-15T00:21:15.684Z,99049.53
2023-11-15T00:23:43.533Z,99045.53
2023-11-15T00:26:11.077Z,99059.34
2023-11-15T00:28:40.592Z,99055.91
2023-11-15T00:31:08.736Z,99071.34
2023-11-15T00:33:38.383Z,99065.78
2023-11-15T00:36:06.790Z,99065.53
2023-11-15T00:38:35.752Z,99066.59
2023-11-15T00:41:04.851Z,99066.31
2023-11-15T00:43:32.630Z,99063.13
2023-11-15T00:46:01.833Z,99065.28
2023-11-15T00:48:29.993Z,99069.56
2023-11-15T00:50:57.635Z,99062.41
2023-11-15T00:53:25.820Z,99070.91
2023-11-15T00:55:53.309Z,99058.72
2023-11-15T00:58:20.955Z,99056.59
2023-11-15T01:00:49.658Z,99055.22
2023-11-15T01:03:27.039Z,99052.00
2023-11-15T01:05:56.122Z,99052.88
2023-11-15T01:08:24.697Z,99055.50
2023-11-15T01:10:53.258Z,99044.28
2023-11-15T01:13:20.967Z,99041.06
2023-11-15T01:15:49.584Z,99057.09
2023-11-15T01:18:19.656Z,99041.94
2023-11-15T01:20:47.555Z,99035.59
2023-11-15T01:23:16.299Z,99029.72
2023-11-15T01:25:43.858Z,99040.06
2023-11-15T01:28:11.389Z,99034.69
2023-11-15T01:30:39.836Z,99037.69
2023-11-15T01:33:07.442Z,99037.41
2023-11-15T01:35:39.129Z,99009.59
2023-11-15T01:38:07.148Z,99008.50
2023-11-15T01:40:39.062Z,98996.56
2023-11-15T01:43:07.560Z,99001.06
2023-11-15T01:45:35.044Z,98991.97
2023-11-15T01:48:02.632Z,98983.66
2023-11-15T01:50:30.685Z,98991.88
2023-11-15T01:53:01.412Z,98997.75
2023-11-15T01:55:29.691Z,98993.81
2023-11-15T01:57:58.442Z,98983.97
2023-11-15T02:00:26.867Z,98986.63
2023-11-15T02:02:54.873Z,98996.22
2023-11-15T02:05:22.647Z,98999.66
2023-11-15T02:07:50.276Z,99004.16
2023-11-15T02:10:19.276Z,99012.88
2023-11-15T02:12:47.784Z,99005.06
2023-11-15T02:15:16.620Z,99008.44
2023-11-15T02:17:44.865Z,99010.84
2023-11-15T02:20:14.040Z,99020.34
2023-11-15T02:22:48.014Z,99031.28
2023-11-15T02:25:18.100Z,99027.19
2023-11-15T02:27:46.211Z,99032.03
2023-11-15T02:30:15.376Z,99013.25
2023-11-15T02:32:44.889Z,99036.00
2023-11-15T02:35:12.823Z,99041.66
2023-11-15T02:37:43.111Z,99039.06
2023-11-15T02:40:11.744Z,99055.78
2023-11-15T02:42:41.044Z,99050.00
2023-11-15T02:45:09.239Z,99056.88
2023-11-15T02:47:36.797Z,99060.13
2023-11-15T02:50:04.635Z,99061.13
2023-11-15T02:52:32.988Z,99073.31
2023-11-15T02:55:00.510Z,99082.13
2023-11-15T02:57:28.005Z,99080.00
2023-11-15T02:59:56.983Z,99088.56
2023-11-15T03:02:24.738Z,99081.94
2023-11-15T03:04:52.256Z,99077.09
2023-11-15T03:07:19.742Z,99092.50
2023-11-15T03:09:47.357Z,99102.28
2023-11-15T03:12:14.899Z,99097.50
2023-11-15T03:14:42.724Z,99095.34
2023-11-15T03:17:17.922Z,99105.53
2023-11-15T03:19:45.849Z,99106.56
2023-11-15T03:22:14.610Z,99112.34
2023-11-15T03:24:43.564Z,99112.34
2023-11-15T03:27:11.091Z,99109.50
2023-11-15T03:29:38.581Z,99109.50
2023-11-15T03:32:06.520Z,99127.56
2023-11-15T03:34:37.551Z,99128.44
2023-11-15T03:37:05.681Z,99140.19
2023-11-15T03:39:33.790Z,99151.59
2023-11-15T03:42:01.311Z,99145.25
2023-11-15T03:44:28.775Z,99142.59
2023-11-15T03:46:56.342Z,99151.03
2023-11-15T03:49:23.826Z,99148.63
2023-11-15T03:51:52.701Z,99151.84
2023-11-15T03:54:20.191Z,99155.88
2023-11-15T03:56:47.740Z,99161.44
2023-11-15T03:59:15.224Z,99167.72
2023-11-15T04:01:51.996Z,99165.28
2023-11-15T04:04:24.680Z,99174.25
2023-11-15T04:06:54.256Z,99178.44
2023-11-15T04:09:21.741Z,99187.47
2023-11-15T04:11:49.655Z,99194.91
2023-11-15T04:14:18.463Z,99194.31
2023-11-15T04:16:46.107Z,99197.84
2023-11-15T04:19:13.657Z,99199.56
2023-11-15T04:21:41.570Z,99200.84
2023-11-15T04:24:11.133Z,99205.53
2023-11-15T04:26:39.436Z,99206.47
2023-11-15T04:29:06.971Z,99210.09
2023-11-15T04:31:36.483Z,99219.44
2023-11-15T04:34:04.173Z,99229.56
2023-11-15T04:36:35.919Z,99231.88
2023-11-15T04:41:36.645Z,99247.13
2023-11-15T04:44:05.577Z,99256.09
2023-11-15T04:46:34.031Z,99258.09
2023-11-15T04:49:02.679Z,99253.03
2023-11-15T04:51:30.492Z,99269.69
2023-11-15T04:53:59.183Z,99272.13
2023-11-15T04:56:27.016Z,99268.25
2023-11-15T04:58:55.894Z,99263.50
2023-11-15T05:01:23.487Z,99269.03
2023-11-15T05:03:51.397Z,99269.63
2023-11-15T05:06:19.036Z,99270.97
2023-11-15T05:08:46.808Z,99280.84
2023-11-15T05:11:14.283Z,99283.84
2023-11-15T05:13:41.986Z,99283.09
2023-11-15T05:16:10.924Z,99288.16
2023-11-15T05:18:39.175Z,99298.53
2023-11-15T05:21:08.092Z,99295.88
2023-11-15T05:23:35.870Z,99294.03
2023-11-15T05:26:03.961Z,99304.91
2023-11-15T05:28:33.944Z,99307.78
2023-11-15T05:31:02.290Z,99305.69
2023-11-15T05:33:33.991Z,99310.22
2023-11-15T05:36:01.575Z,99314.88
2023-11-15T05:38:29.167Z,99323.97
2023-11-15T05:40:58.296Z,99327.72
2023-11-15T05:43:25.812Z,99324.66
2023-11-15T05:45:53.510Z,99325.91
2023-11-15T05:48:21.038Z,99328.66
2023-11-15T05:50:49.920Z,99329.69
2023-11-15T05:53:17.827Z,99326.47
2023-11-15T05:55:45.446Z,99328.72
2023-11-15T05:58:12.974Z,99339.44
2023-11-15T06:00:42.860Z,99345.66
2023-11-15T06:03:11.484Z,99343.66
2023-11-15T06:05:39.560Z,99341.28
2023-11-15T06:08:08.460Z,99351.41
2023-11-15T06:10:35.990Z,99339.91
2023-11-15T06:13:03.542Z,99348.91
2023-11-15T06:15:31.099Z,99364.53
2023-11-15T06:17:58.905Z,99370.34
2023-11-15T06:20:26.428Z,99365.94
2023-11-15T06:22:53.911Z,99374.00
2023-11-15T06:25:23.094Z,99376.66
2023-11-15T06:27:50.653Z,99378.56
2023-11-15T06:30:21.282Z,99376.41
2023-11-15T06:32:49.485Z,99383.53
2023-11-15T06:35:20.157Z,99388.31
2023-11-15T06:37:48.311Z,99390.22
2023-11-15T06:40:16.100Z,99389.09
2023-11-15T06:42:45.646Z,99391.75
2023-11-15T06:45:14.118Z,99395.47
2023-11-15T06:47:43.654Z,99397.25
2023-11-15T06:50:12.138Z,99403.38
2023-11-15T06:52:41.293Z,99406.28
2023-11-15T06:55:11.917Z,99407.56
2023-11-15T06:57:42.363Z,99408.28
2023-11-15T07:00:13.996Z,99400.28
2023-11-15T07:02:43.293Z,99418.13
2023-11-15T07:05:12.381Z,99418.63
2023-11-15T07:07:40.927Z,99414.72
2023-11-15T07:10:09.720Z,99418.44
2023-11-15T07:12:37.562Z,99430.41
2023-11-15T07:15:08.873Z,99435.25
2023-11-15T07:17:39.116Z,99433.47
2023-11-15T07:20:11.238Z,99449.25
2023-11-15T07:22:39.774Z,99441.03
2023-11-15T07:25:08.480Z,99453.84
2023-11-15T07:27:36.942Z,99454.38
2023-11-15T07:30:05.210Z,99455.22
2023-11-15T07:32:35.493Z,99461.22
2023-11-15T07:35:05.949Z,99459.00
2023-11-15T07:37:33.453Z,99451.66
2023-11-15T07:40:05.473Z,99452.16
2023-11-15T07:42:35.358Z,99454.28
2023-11-15T07:45:03.599Z,99453.16
2023-11-15T07:47:35.746Z,99461.53
2023-11-15T07:50:06.100Z,99465.78
2023-11-15T07:52:34.028Z,99467.63
2023-11-15T07:55:02.449Z,99483.00
2023-11-15T07:57:30.114Z,99486.38
2023-11-15T07:59:57.877Z,99494.09
2023-11-15T08:02:25.483Z,99509.47
2023-11-15T08:04:53.032Z,99514.78
2023-11-15T08:07:22.874Z,99517.91
2023-11-15T08:09:50.427Z,99515.16
2023-11-15T08:12:19.234Z,99541.56
2023-11-15T08:14:46.895Z,99557.13
2023-11-15T08:17:15.692Z,99562.84
2023-11-15T08:19:47.351Z,99579.53
2023-11-15T08:22:17.430Z,99585.19
2023-11-15T08:24:48.223Z,99589.50
2023-11-15T08:27:15.994Z,99617.47
2023-11-15T08:29:43.855Z,99619.34
2023-11-15T08:32:12.861Z,99617.53
2023-11-15T08:34:40.460Z,99613.53
2023-11-15T08:37:09.288Z,99601.28
2023-11-15T08:39:36.856Z,99596.84
2023-11-15T08:42:07.462Z,99595.22
2023-11-15T08:44:35.237Z,99600.78
2023-11-15T08:47:03.094Z,99600.22
2023-11-15T08:49:31.865Z,99590.88
2023-11-15T08:51:59.383Z,99626.97
2023-11-15T08:54:26.890Z,99624.91
2023-11-15T08:56:54.694Z,99625.94
2023-11-15T08:59:25.334Z,99632.22
2023-11-15T09:01:52.992Z,99633.66
2023-11-15T09:04:20.552Z,99637.38
2023-11-15T09:06:49.805Z,99622.00
2023-11-15T09:09:18.550Z,99617.16
2023-11-15T09:11:46.801Z,99610.16
2023-11-15T09:14:17.704Z,99609.97
2023-11-15T09:16:46.754Z,99612.31
2023-11-15T09:19:17.820Z,99611.66
2023-11-15T09:21:49.348Z,99602.88
2023-11-15T09:24:22.858Z,99608.19
2023-11-15T09:26:51.277Z,99613.53
2023-11-15T09:29:20.332Z,99614.16
2023-11-15T09:31:52.077Z,99622.53
2023-11-15T09:34:22.351Z,99619.97
2023-11-15T09:36:50.943Z,99605.56
2023-11-15T09:39:18.708Z,99610.06
2023-11-15T09:41:54.946Z,99609.50
2023-11-15T09:44:24.507Z,99623.53
2023-11-15T09:46:59.888Z,99608.94
2023-11-15T09:49:28.390Z,99615.66
2023-11-15T09:51:57.975Z,99607.25
2023-11-15T09:54:27.412Z,99603.94
2023-11-15T09:56:55.979Z,99610.88
2023-11-15T09:59:24.197Z,99606.03
2023-11-15T10:01:51.867Z,99606.34
2023-11-15T10:04:28.742Z,99601.66
2023-11-15T10:07:05.198Z,99614.31
2023-11-15T10:09:36.230Z,99624.34
2023-11-15T10:12:04.893Z,99617.22
2023-11-15T10:14:34.147Z,99612.06
2023-11-15T10:17:04.398Z,99626.53
2023-11-15T10:19:35.190Z,99623.72
2023-11-15T10:22:05.728Z,99605.56
2023-11-15T10:24:36.047Z,99613.38
2023-11-15T10:27:09.720Z,99624.44
2023-11-15T10:29:39.449Z,99622.16
2023-11-15T10:32:07.686Z,99625.50
2023-11-15T10:34:50.047Z,99636.47
2023-11-15T10:37:19.067Z,99641.66
2023-11-15T10:39:47.723Z,99647.38
2023-11-15T10:42:19.653Z,99659.41
2023-11-15T10:44:48.609Z,99666.09
2023-11-15T10:47:20.592Z,99678.13
2023-11-15T10:49:55.508Z,99682.41
2023-11-15T10:52:23.618Z,99691.72
2023-11-15T10:54:57.102Z,99682.19
2023-11-15T10:57:29.246Z,99681.56
2023-11-15T11:00:07.987Z,99691.56
2023-11-15T11:02:39.382Z,99689.84
2023-11-15T11:05:15.072Z,99688.66
2023-11-15T11:07:50.652Z,99696.47
2023-11-15T11:10:26.633Z,99689.88
2023-11-15T11:12:57.346Z,99694.91
2023-11-15T11:15:28.343Z,99691.72
2023-11-15T11:18:06.947Z,99683.22
2023-11-15T11:20:37.767Z,99675.06
2023-11-15T11:23:09.906Z,99670.97
2023-11-15T11:25:40.126Z,99660.41
2023-11-15T11:28:08.800Z,99665.56
2023-11-15T11:30:36.930Z,99672.84
2023-11-15T11:33:11.847Z,99660.44
2023-11-15T11:35:47.078Z,99646.97
2023-11-15T11:38:41.544Z,99658.09
2023-11-15T11:41:09.922Z,99660.19
2023-11-15T11:43:38.440Z,99660.91
2023-11-15T11:46:16.903Z,99660.66
2023-11-15T11:48:44.812Z,99666.47
2023-11-15T11:51:15.552Z,99679.38
2023-11-15T11:53:46.230Z,99680.22
2023-11-15T11:56:14.934Z,99693.28
2023-11-15T11:58:44.847Z,99695.16
2023-11-15T12:01:13.238Z,99687.66
2023-11-15T12:03:48.598Z,99697.81
2023-11-15T12:06:18.993Z,99707.28
2023-11-15T12:08:50.088Z,99707.72
2023-11-15T12:11:23.049Z,99706.94
2023-11-15T12:13:52.367Z,99712.34
2023-11-15T12:16:22.752Z,99716.88
2023-11-15T12:19:05.298Z,99728.22
2023-11-15T12:21:37.435Z,99722.75
2023-11-15T12:24:11.176Z,99727.72
2023-11-15T12:26:47.349Z,99724.91
2023-11-15T12:29:23.195Z,99735.72
2023-11-15T12:31:52.514Z,99723.63
2023-11-15T12:34:25.228Z,99730.59
2023-11-15T12:36:54.588Z,99721.72
2023-11-15T12:39:23.899Z,99710.91
2023-11-15T12:41:53.475Z,99693.97
2023-11-15T12:44:22.711Z,99697.44
2023-11-15T12:46:59.125Z,99689.13
2023-11-15T12:49:28.449Z,99678.75
2023-11-15T12:51:58.623Z,99672.16
2023-11-15T12:54:26.145Z,99675.63
2023-11-15T12:57:15.016Z,99682.31
2023-11-15T12:59:45.675Z,99673.44
2023-11-15T13:02:18.836Z,99685.34
2023-11-15T13:04:47.721Z,99686.03
2023-11-15T13:07:16.790Z,99685.47
2023-11-15T13:09:45.316Z,99702.00
2023-11-15T13:12:23.421Z,99688.72
2023-11-15T13:14:53.524Z,99692.53
2023-11-15T13:17:21.194Z,99696.47
2023-11-15T13:19:49.964Z,99695.56
2023-11-15T13:22:18.807Z,99720.84
2023-11-15T13:24:50.553Z,99701.59
2023-11-15T13:27:21.273Z,99698.09
2023-11-15T13:29:49.391Z,99709.66
2023-11-15T13:32:16.937Z,99711.16
2023-11-15T13:34:46.066Z,99717.03
2023-11-15T13:37:14.264Z,99730.28
2023-11-15T13:39:43.200Z,99718.88
2023-11-15T13:42:10.911Z,99721.53
2023-11-15T13:44:39.559Z,99740.66
2023-11-15T13:47:08.552Z,99738.84
2023-11-15T13:49:36.226Z,99750.59
2023-11-15T13:52:04.222Z,99739.53
2023-11-15T13:54:31.850Z,99757.41
2023-11-15T13:57:00.974Z,99749.78
2023-11-15T13:59:32.971Z,99760.97
2023-11-15T14:02:00.515Z,99768.25
2023-11-15T14:04:28.050Z,99780.31
2023-11-15T14:06:56.781Z,99804.91
2023-11-15T14:09:26.895Z,99807.75
2023-11-15T14:11:54.884Z,99813.25
2023-11-15T14:14:25.753Z,99799.59
2023-11-15T14:16:54.721Z,99794.28
2023-11-15T14:19:25.454Z,99790.88
2023-11-15T14:21:53.430Z,99796.88
2023-11-15T14:24:21.858Z,99793.44
2023-11-15T14:26:49.809Z,99793.38
2023-11-15T14:29:17.641Z,99786.53
2023-11-15T14:31:46.605Z,99798.75
2023-11-15T14:34:14.220Z,99782.75
2023-11-15T14:36:46.127Z,99792.69
2023-11-15T14:39:13.933Z,99803.31
2023-11-15T14:41:42.820Z,99804.41
2023-11-15T14:44:10.378Z,99808.16
2023-11-15T14:46:38.230Z,99813.16
2023-11-15T14:49:07.230Z,99813.38
2023-11-15T14:51:35.059Z,99807.34
2023-11-15T14:54:03.076Z,99817.81
2023-11-15T14:56:31.982Z,99812.03
2023-11-15T14:59:00.489Z,99802.34
2023-11-15T15:01:28.481Z,99802.88
2023-11-15T15:03:56.744Z,99791.91
2023-11-15T15:06:25.838Z,99795.69
2023-11-15T15:08:53.424Z,99793.75
2023-11-15T15:11:20.986Z,99786.22
2023-11-15T15:13:48.527Z,99775.59
2023-11-15T15:16:17.997Z,99777.69
2023-11-15T15:18:45.795Z,99783.72
2023-11-15T15:21:15.838Z,99784.34
2023-11-15T15:23:44.832Z,99775.88
2023-11-15T15:26:13.727Z,99776.38
2023-11-15T15:28:41.248Z,99770.94
2023-11-15T15:31:08.718Z,99759.84
2023-11-15T15:33:36.405Z,99761.25
2023-11-15T15:36:04.411Z,99762.19
2023-11-15T15:38:31.907Z,99770.63
2023-11-15T15:41:03.363Z,99760.13
2023-11-15T15:43:31.670Z,99761.31
2023-11-15T15:45:59.271Z,99777.81
2023-11-15T15:48:26.836Z,99783.69
2023-11-15T15:50:54.752Z,99791.91
2023-11-15T15:53:22.593Z,99797.22
2023-11-15T15:55:50.232Z,99789.00
2023-11-15T15:58:19.118Z,99798.81
2023-11-15T16:00:48.255Z,99801.97
2023-11-15T16:03:15.850Z,99797.31
2023-11-15T16:05:46.105Z,99797.09
2023-11-15T16:08:13.707Z,99800.66
2023-11-15T16:10:41.295Z,99797.22
2023-11-15T16:13:08.755Z,99800.53
2023-11-15T16:15:38.742Z,99790.03
2023-11-15T16:18:06.911Z,99800.50
2023-11-15T16:20:34.506Z,99806.94
2023-11-15T16:23:02.113Z,99807.41
2023-11-15T16:25:29.963Z,99813.88
2023-11-15T16:27:57.480Z,99808.38
2023-11-15T16:30:26.940Z,99799.47
2023-11-15T16:32:56.630Z,99804.22
2023-11-15T16:35:24.694Z,99812.00
2023-11-15T16:37:54.415Z,99814.31
2023-11-15T16:40:22.173Z,99819.78
2023-11-15T16:42:49.861Z,99832.63
2023-11-15T16:45:18.560Z,99840.59
2023-11-15T16:47:46.171Z,99844.75
2023-11-15T16:50:15.288Z,99856.22
2023-11-15T16:52:42.994Z,99869.16
2023-11-15T16:55:13.475Z,99862.72
2023-11-15T16:57:41.137Z,99874.13
2023-11-15T17:00:10.311Z,99883.22
2023-11-15T17:02:40.115Z,99884.13
2023-11-15T17:05:08.336Z,99891.66
2023-11-15T17:07:37.135Z,99882.97
2023-11-15T17:10:05.774Z,99894.25
2023-11-15T17:12:33.534Z,99884.81
2023-11-15T17:15:01.189Z,99895.09
2023-11-15T17:17:29.684Z,99901.22
2023-11-15T17:19:58.437Z,99896.59
2023-11-15T17:22:27.903Z,99898.81
2023-11-15T17:24:56.738Z,99911.50
2023-11-15T17:27:25.265Z,99904.59
2023-11-15T17:29:53.295Z,99908.66
2023-11-15T17:32:20.831Z,99908.78
2023-11-15T17:34:48.565Z,99908.56
2023-11-15T17:37:16.579Z,99912.84
2023-11-15T17:39:44.805Z,99904.03
2023-11-15T17:42:13.661Z,99906.22
2023-11-15T17:44:41.405Z,99906.47
2023-11-15T17:47:08.871Z,99910.63
2023-11-15T17:49:36.363Z,99916.72
2023-11-15T17:52:10.835Z,99912.09
2023-11-15T17:54:38.633Z,99914.44
2023-11-15T17:57:06.578Z,99910.38
2023-11-15T17:59:35.690Z,99910.63
2023-11-15T18:02:05.207Z,99913.00
2023-11-15T18:04:33.220Z,99907.78
2023-11-15T18:07:01.002Z,99899.13
2023-11-15T18:09:28.562Z,99898.34
2023-11-15T18:11:56.820Z,99896.16
2023-11-15T18:14:24.680Z,99888.75
2023-11-15T18:16:53.936Z,99890.94
2023-11-15T18:19:22.375Z,99880.31
2023-11-15T18:21:52.042Z,99881.47
2023-11-15T18:24:20.061Z,99876.38
2023-11-15T18:26:47.699Z,99862.88
2023-11-15T18:29:15.301Z,99859.72
2023-11-15T18:31:43.178Z,99871.81
2023-11-15T18:34:12.591Z,99873.13
2023-11-15T18:36:44.193Z,99875.44
2023-11-15T18:39:15.554Z,99867.84
2023-11-15T18:41:44.056Z,99870.00
2023-11-15T18:44:12.605Z,99866.75
2023-11-15T18:46:40.507Z,99872.63
2023-11-15T18:49:07.992Z,99862.22
2023-11-15T18:51:37.114Z,99859.25
2023-11-15T18:54:05.026Z,99863.53
2023-11-15T18:56:32.788Z,99864.81
2023-11-15T18:59:01.482Z,99867.59
2023-11-15T19:01:33.144Z,99871.50
2023-11-15T19:04:03.179Z,99890.06
2023-11-15T19:06:33.303Z,99863.44
2023-11-15T19:09:02.755Z,99887.38
2023-11-15T19:11:32.131Z,99879.63
2023-11-15T19:13:59.836Z,99897.28
2023-11-15T19:16:28.782Z,99893.50
2023-11-15T19:18:56.757Z,99908.38
2023-11-15T19:21:24.986Z,99902.63
2023-11-15T19:23:53.309Z,99910.91
2023-11-15T19:26:25.168Z,99914.75
2023-11-15T19:28:52.983Z,99917.63
2023-11-15T19:31:20.523Z,99920.63
2023-11-15T19:33:49.575Z,99927.34
2023-11-15T19:36:17.199Z,99926.19
2023-11-15T19:38:44.724Z,99922.94
2023-11-15T19:41:19.376Z,99919.00
2023-11-15T19:43:48.458Z,99946.25
2023-11-15T19:46:20.105Z,99946.84
2023-11-15T19:48:48.772Z,99952.69
2023-11-15T19:51:23.599Z,99942.41
2023-11-15T19:54:06.641Z,99941.56
2023-11-15T19:56:34.599Z,99935.78
2023-11-15T19:59:04.728Z,99930.38
2023-11-15T20:01:32.371Z,99949.28
2023-11-15T20:04:01.864Z,99925.75
2023-11-15T20:06:29.729Z,99931.66
2023-11-15T20:08:57.510Z,99921.13
2023-11-15T20:11:25.578Z,99925.41
2023-11-15T20:13:55.654Z,99936.03
2023-11-15T20:16:25.548Z,99936.25
2023-11-15T20:18:53.334Z,99935.66
2023-11-15T20:21:20.982Z,99939.00
2023-11-15T20:23:48.687Z,99935.16
2023-11-15T20:26:16.427Z,99938.72
2023-11-15T20:28:44.899Z,99945.44
2023-11-15T20:31:14.198Z,99950.38
2023-11-15T20:33:43.414Z,99954.56
2023-11-15T20:36:11.942Z,99954.19
2023-11-15T20:38:39.568Z,99949.81
2023-11-15T20:41:08.368Z,99959.97
2023-11-15T20:43:37.017Z,99954.56
2023-11-15T20:46:17.168Z,99961.97
2023-11-15T20:48:48.170Z,99952.94
2023-11-15T20:51:15.947Z,99950.28
2023-11-15T20:53:44.679Z,99956.53
2023-11-15T20:56:12.188Z,99952.69
2023-11-15T20:58:41.287Z,99954.19
2023-11-15T21:01:08.875Z,99941.72
2023-11-15T21:03:36.556Z,99948.53
2023-11-15T21:06:06.318Z,99946.84
2023-11-15T21:08:35.923Z,99943.13
2023-11-15T21:11:06.096Z,99940.59
2023-11-15T21:13:35.902Z,99943.16
2023-11-15T21:16:07.461Z,99937.00
2023-11-15T21:18:35.231Z,99945.22
2023-11-15T21:21:07.281Z,99944.97
2023-11-15T21:23:36.163Z,99955.41
2023-11-15T21:26:04.550Z,99934.59
2023-11-15T21:28:32.168Z,99933.78
2023-11-15T21:30:59.658Z,99950.19
2023-11-15T21:33:27.322Z,99950.09
2023-11-15T21:35:55.209Z,99941.53
2023-11-15T21:38:24.097Z,99947.63
2023-11-15T21:40:51.981Z,99941.53
2023-11-15T21:43:19.791Z,99939.47
2023-11-15T21:45:48.732Z,99932.53
2023-11-15T21:48:16.555Z,99940.25
2023-11-15T21:50:45.472Z,99935.50
2023-11-15T21:53:14.348Z,99943.72
2023-11-15T21:55:43.266Z,99929.94
2023-11-15T21:58:13.154Z,99932.03
2023-11-15T22:00:40.720Z,99926.13
2023-11-15T22:03:08.285Z,99910.06
2023-11-15T22:05:36.446Z,99916.75
2023-11-15T22:08:04.406Z,99910.06
2023-11-15T22:10:32.227Z,99893.19
2023-11-15T22:13:01.164Z,99893.19
2023-11-15T22:15:29.266Z,99886.16
2023-11-15T22:17:57.454Z,99874.16
2023-11-15T22:20:25.120Z,99881.97
2023-11-15T22:22:52.585Z,99867.91
2023-11-15T22:25:20.446Z,99865.91
2023-11-15T22:27:48.062Z,99868.94
2023-11-15T22:30:17.011Z,99864.78
2023-11-15T22:32:44.821Z,99870.31
2023-11-15T22:35:12.739Z,99862.38
2023-11-15T22:37:40.346Z,99854.41
2023-11-15T22:40:08.736Z,99850.38
2023-11-15T22:42:36.430Z,99851.25
2023-11-15T22:45:05.536Z,99846.66
2023-11-15T22:47:35.086Z,99853.81
2023-11-15T22:50:05.768Z,99839.72
2023-11-15T22:52:34.497Z,99829.34
2023-11-15T22:55:02.061Z,99834.06
2023-11-15T22:57:29.587Z,99813.31
2023-11-15T22:59:57.149Z,99825.41
2023-11-15T23:02:24.726Z,99813.19
2023-11-15T23:04:56.165Z,99817.09
2023-11-15T23:07:23.947Z,99808.94
2023-11-15T23:09:51.854Z,99804.22
2023-11-15T23:12:19.789Z,99810.78
2023-11-15T23:14:48.929Z,99804.91
2023-11-15T23:17:16.641Z,99811.38
2023-11-15T23:19:44.252Z,99806.50
2023-11-15T23:22:13.067Z,99804.66
2023-11-15T23:24:40.811Z,99798.34
2023-11-15T23:27:10.899Z,99804.66
2023-11-15T23:29:38.615Z,99802.59
2023-11-15T23:32:06.803Z,99799.25
2023-11-15T23:34:34.298Z,99806.75
2023-11-15T23:37:03.409Z,99791.31
2023-11-15T23:39:33.411Z,99800.66
2023-11-15T23:42:01.008Z,99809.19
2023-11-15T23:44:28.564Z,99810.22
2023-11-15T23:46:58.915Z,99817.13
2023-11-15T23:49:26.894Z,99815.88
2023-11-15T23:51:54.395Z,99810.94
2023-11-15T23:54:22.486Z,99832.16
2023-11-15T23:56:51.371Z,99826.72
2023-11-15T23:59:21.978Z,99819.94
